Huvudsida
METAR-TAF:

METAR-TAF

Flygplatser :

Madrid / Getafe

Madrid-Getafe, Spanien

latitud: 40-18N, longitud: 003-43W, höjd: 620 m

Aktuellt väderrapport

Denna rapport gjordes för 43 minuter sedan, klockan 07:00 UTC
Vind 3 kt från ost
Temperatur 9°C
Fuktighet 71%
Tryck 1010 hPa
Sikt 10 km eller mer
Inga moln under 1 500 m eller inga cumulonimbus

METAR: LEGT 250700Z 10003KT CAVOK 09/04 Q1010

Tid: 09:43 (07:43 UTC)

Väderprognos

Denna rapport gjordes för 2 timmar och 43 minuter sedan, klockan 05:00 UTC
Prognos gäller från 25 kl. 06 UTC till 26 kl. 06 UTC
Vind 4 kt varierande vindriktning
Sikt 10 km eller mer
Inga moln under 1 500 m eller inga cumulonimbus
Blir
från 25 kl. 12 UTC till 25 kl. 14 UTC
Vind 10 kt från väst/nordväst

TAF: LEGT 250500Z 2506/2606 VRB04KT CAVOK TX21/2515Z TN05/2506Z BECMG 2512/2514 29010KT

Aktuella väderrapporter och prognoser från 4000 flygplatser (METAR- och TAF-rapporter).

De tillgängliga stationerna syns som gula och röda prickar på kartan.

För musen över prickarna för att se namnen på stationerna.

Klicka sedan för att få väderrapporter och prognoser.

För att ändra kartan: Klicka på de gröna knapparna med ett svart kors på för att zooma in; den gröna knappen med ett streck på för att zooma ut; eller på de gröna pilarna för angränsande kartor.


METAR-TAF: